^^

Meteo Aereoporti Centro-Italia

 

 
LIRZ - Perugia S.Egidio (208 m.)
Dati ricevuti: 18/09/2021 15:20
Sereno
Sereno
 Vento da direzione variabile
Vento: direzione variabile 6 km/h
TEMPERATURA: 28°C
Indice di Calore: 28°C
P.to di Rugiada: 14°C
Umidità: 42%
Pressione: 1013 hPa
Nuvole: Sereno
Visibilità: 10 km
2021/09/18 13:20 LIRZ 181320Z AUTO VRB03KT 9999 NCD 28/14 Q1013
 
LIPY - Ancona Falconara (12 m.)
Dati ricevuti: 18/09/2021 15:20
Qualche nuvola
Qualche nuvola
 Vento da NE
Vento: NE 17 km/h
TEMPERATURA: 25°C
P.to di Rugiada: 18°C
Umidità: 65%
Pressione: 1012 hPa
Nuvole: Qualche nuvola
Visibilità: 10 km
Dettagli Nuvole: Qualche nuvola 2134 m
2021/09/18 13:20 LIPY 181320Z AUTO 04009KT 9999 FEW070/// 25/18 Q1012
 
LIPR - Rimini Miramare (12 m.)
Dati ricevuti: 18/09/2021 15:20
Pioggia debole, Poco nuvoloso
Pioggia debole, Poco nuvoloso
 Vento da direzione variabile
Vento: direzione variabile 4 km/h
TEMPERATURA: 23°C
P.to di Rugiada: 19°C
Umidità: 78%
Pressione: 1012 hPa
Condizioni generali: Pioggia debole
Nuvole: Poco nuvoloso
Visibilità: 10 km
Dettagli Nuvole: Qualche nuvola 914 m
Poco nuvoloso 1829 m
2021/09/18 13:20 LIPR 181320Z VRB02KT 9999 -RA FEW030CB SCT060 23/19 Q1012 RETSRA
 
LIRF - Roma Fiumicino (2 m.)
Dati ricevuti: 18/09/2021 15:20
Sereno
Sereno
 Vento da S
Vento: S 15 km/h
TEMPERATURA: 27°C
Indice di Calore: 29°C
P.to di Rugiada: 20°C
Umidità: 66%
Pressione: 1012 hPa
Condizioni generali: Sereno
Visibilità: oltre 10 km
2021/09/18 13:20 LIRF 181320Z 19008KT 160V220 CAVOK 27/20 Q1012 NOSIG
 
LIRA - Roma Ciampino (129 m.)
Dati ricevuti: 18/09/2021 15:20
Qualche nuvola
Qualche nuvola
 Vento da SW
Vento: SW 17 km/h
TEMPERATURA: 29°C
Indice di Calore: 29°C
P.to di Rugiada: 15°C
Umidità: 43%
Pressione: 1013 hPa
Nuvole: Qualche nuvola
Visibilità: 10 km
Dettagli Nuvole: Qualche nuvola 1067 m
2021/09/18 13:20 LIRA 181320Z 22009KT 180V250 9999 FEW035 29/15 Q1013
 
LIRU - Roma Urbe (17 m.)
Dati ricevuti: 18/09/2021 14:50
Qualche nuvola
Qualche nuvola
 Vento da SW
Vento: SW 15 km/h
TEMPERATURA: 30°C
P.to di Rugiada: 14°C
Umidità: 38%
Pressione: 1012 hPa
Nuvole: Qualche nuvola
Visibilità: 10 km
Dettagli Nuvole: Qualche nuvola 914 m
2021/09/18 12:50 LIRU 181250Z 22008KT 160V250 9999 FEW030 30/14 Q1012
 
LIVF - Frontone (570 m.)
Dati ricevuti: 15/09/2021 13:55
Dati non aggiornati
Sereno
Sereno
 Vento da WSW
Vento: WSW 9 km/h
TEMPERATURA: 26°C
P.to di Rugiada: 9°C
Umidità: 34%
Pressione: 1019 hPa
Condizioni generali: Sereno
Visibilità: oltre 10 km
2021/09/15 11:55 LIVF 151155Z 24005KT CAVOK 26/09 Q1019
 
LIRQ - Firenze Peretola (40 m.)
Dati ricevuti: 18/09/2021 15:20
Poco nuvoloso
Poco nuvoloso
 Vento da WNW
Vento: WNW 9 km/h
TEMPERATURA: 26°C
P.to di Rugiada: 19°C
Umidità: 65%
Pressione: 1012 hPa
Nuvole: Poco nuvoloso
Visibilità: 10 km
Dettagli Nuvole: Poco nuvoloso 1067 m
2021/09/18 13:20 LIRQ 181320Z 30005KT 9999 SCT035 26/19 Q1012
 
LIBP - Pescara (10 m.)
Dati ricevuti: 18/09/2021 15:20
Sereno
Sereno
 Vento da ENE
Vento: ENE 19 km/h
TEMPERATURA: 27°C
Indice di Calore: 28°C
P.to di Rugiada: 18°C
Umidità: 58%
Pressione: 1012 hPa
Nuvole: Sereno
Visibilità: 10 km
2021/09/18 13:20 LIBP 181320Z AUTO 07010KT 040V110 9999 NCD 27/18 Q1012
 
LIRV - Viterbo (300 m.)
Dati ricevuti: 18/09/2021 14:55
Poco nuvoloso
Poco nuvoloso
 Vento da S
Vento: S 11 km/h
TEMPERATURA: 28°C
Indice di Calore: 28°C
P.to di Rugiada: 15°C
Umidità: 45%
Pressione: 1014 hPa
Nuvole: Poco nuvoloso
Visibilità: 10 km
Dettagli Nuvole: Poco nuvoloso 732 m
2021/09/18 12:55 LIRV 181255Z 17006KT 9999 SCT024 28/15 Q1014
 
LIQN - Rieti (389 m.)
Dati ricevuti: 18/09/2021 14:50
Qualche nuvola
Qualche nuvola
 Vento da direzione variabile
Vento: direzione variabile 7 km/h
TEMPERATURA: 28°C
Indice di Calore: 28°C
P.to di Rugiada: 14°C
Umidità: 42%
Pressione: 1014 hPa
Nuvole: Qualche nuvola
Visibilità: 10 km
Dettagli Nuvole: Qualche nuvola 1463 m
2021/09/18 12:50 LIQN 181250Z VRB04KT 9999 FEW048 28/14 Q1014
 
LIRG - Guidonia -RM- (88 m.)
Dati ricevuti: 17/09/2021 19:55
Dati non aggiornati
Qualche nuvola
Qualche nuvola
 Vento da S
Vento: S 11 km/h
TEMPERATURA: 24°C
P.to di Rugiada: 19°C
Umidità: 74%
Pressione: 1013 hPa
Nuvole: Qualche nuvola
Visibilità: 10 km
Dettagli Nuvole: Qualche nuvola 914 m
2021/09/17 17:55 LIRG 171755Z 18006KT 9999 FEW030 24/19 Q1013
 
LIRK - Terminillo -RI-(1874 m.)
Dati ricevuti: 18/09/2021 14:55

 Vento da NNE
Vento: NNE 6 km/h
TEMPERATURA: 14°C
P.to di Rugiada: 11°C
Umidità: 82%
Pressione: 1022 hPa
2021/09/18 12:55 LIRK 181255Z AUTO 02003KT //// 14/11 Q1022
 
LIPK - Forlì (27 m.)
Dati ricevuti: 18/09/2021 15:12
Pioggia e temporali, Poco nuvoloso
Pioggia e temporali, Poco nuvoloso
 Vento da E
Vento: E 11 km/h
TEMPERATURA: 23°C
P.to di Rugiada: 18°C
Umidità: 74%
Pressione: 1012 hPa
Condizioni generali: Thunderstorm Rain
Nuvole: Poco nuvoloso
Visibilità: 8 km
Dettagli Nuvole: Poco nuvoloso 762 m
Poco nuvoloso 1524 m
2021/09/18 13:12 LIPK 181312Z 10006KT 8000 TSRA SCT025CB SCT050 23/18 Q1012
 
LIRS - Grosseto (5 m.)
Dati ricevuti: 18/09/2021 14:55
Qualche nuvola
Qualche nuvola
 Vento da WSW
Vento: WSW 19 km/h
TEMPERATURA: 29°C
Indice di Calore: 29°C
P.to di Rugiada: 17°C
Umidità: 48%
Pressione: 1012 hPa
Nuvole: Qualche nuvola
Visibilità: 10 km
Dettagli Nuvole: Qualche nuvola 610 m
Qualche nuvola 762 m
2021/09/18 12:55 LIRS 181255Z 25010KT 9999 FEW020CB FEW025TCU 29/17 Q1012
 
LIRP - Pisa S.Giusto (2 m.)
Dati ricevuti: 18/09/2021 15:15
Qualche nuvola
Qualche nuvola
 Vento da W
Vento: W 22 km/h
TEMPERATURA: 26°C
P.to di Rugiada: 19°C
Umidità: 65%
Pressione: 1013 hPa
Nuvole: Qualche nuvola
Visibilità: 10 km
Dettagli Nuvole: Poco nuvoloso 610 m
Qualche nuvola 701 m
2021/09/18 13:15 LIRP 181315Z 27012KT 9999 SCT020 FEW023TCU 26/19 Q1013 TEMPO 5000 RA